createdAt,value
2017-09-05T00:00:25.731Z,7.13
2017-09-05T00:02:56.650Z,4.70
2017-09-05T00:05:28.318Z,7.30
2017-09-05T00:07:59.566Z,8.13
2017-09-05T00:10:30.058Z,7.23
2017-09-05T00:13:01.234Z,5.97
2017-09-05T00:15:32.053Z,5.40
2017-09-05T00:18:02.978Z,6.30
2017-09-05T00:20:33.597Z,4.77
2017-09-05T00:23:04.534Z,6.43
2017-09-05T00:25:35.306Z,4.60
2017-09-05T00:28:06.416Z,6.37
2017-09-05T00:30:38.113Z,8.50
2017-09-05T00:33:09.015Z,7.40
2017-09-05T00:35:39.877Z,8.70
2017-09-05T00:38:11.095Z,8.83
2017-09-05T00:40:41.636Z,7.00
2017-09-05T00:43:12.463Z,6.17
2017-09-05T00:45:43.580Z,6.50
2017-09-05T00:48:14.251Z,7.40
2017-09-05T00:50:45.097Z,7.53
2017-09-05T00:53:16.050Z,6.57
2017-09-05T00:55:46.812Z,6.93
2017-09-05T00:58:18.033Z,6.03
2017-09-05T01:00:48.681Z,6.17
2017-09-05T01:03:19.429Z,4.30
2017-09-05T01:05:51.253Z,4.97
2017-09-05T01:08:22.396Z,8.83
2017-09-05T01:10:52.753Z,5.10
2017-09-05T01:13:23.505Z,5.10
2017-09-05T01:15:54.241Z,6.77
2017-09-05T01:18:25.395Z,6.80
2017-09-05T01:20:56.314Z,7.67
2017-09-05T01:23:26.995Z,5.80
2017-09-05T01:25:57.734Z,4.97
2017-09-05T01:28:28.241Z,7.57
2017-09-05T01:30:58.962Z,5.97
2017-09-05T01:33:29.862Z,10.53
2017-09-05T01:36:00.585Z,5.60
2017-09-05T01:38:32.737Z,5.30
2017-09-05T01:41:03.343Z,6.63
2017-09-05T01:43:34.313Z,8.33
2017-09-05T01:56:55.160Z,6.77
2017-09-05T01:59:25.510Z,4.80
2017-09-05T02:01:55.850Z,4.30
2017-09-05T02:04:26.452Z,5.13
2017-09-05T02:06:56.946Z,8.43
2017-09-05T02:09:27.239Z,5.23
2017-09-05T02:11:57.591Z,5.57
2017-09-05T02:14:27.870Z,5.80
2017-09-05T02:16:59.002Z,8.57
2017-09-05T02:19:29.298Z,8.50
2017-09-05T02:21:59.625Z,8.63
2017-09-05T02:24:32.338Z,6.73
2017-09-05T02:27:02.838Z,7.90
2017-09-05T02:29:33.269Z,7.07
2017-09-05T02:32:09.806Z,8.30
2017-09-05T02:34:40.149Z,6.70
2017-09-05T02:37:10.704Z,8.97
2017-09-05T02:39:41.103Z,8.50
2017-09-05T02:42:11.626Z,7.67
2017-09-05T02:44:42.166Z,6.80
2017-09-05T02:47:12.607Z,8.07
2017-09-05T02:49:45.465Z,7.97
2017-09-05T02:52:15.922Z,8.27
2017-09-05T02:54:46.261Z,10.60
2017-09-05T02:57:16.995Z,8.53
2017-09-05T02:59:47.449Z,7.07
2017-09-05T03:02:18.002Z,7.33
2017-09-05T03:04:53.334Z,11.03
2017-09-05T03:07:24.267Z,5.80
2017-09-05T03:09:54.630Z,7.67
2017-09-05T03:12:25.624Z,5.40
2017-09-05T03:14:55.983Z,8.00
2017-09-05T03:17:26.686Z,7.07
2017-09-05T03:19:57.105Z,7.23
2017-09-05T03:22:27.481Z,7.37
2017-09-05T03:24:57.947Z,10.27
2017-09-05T03:27:29.891Z,6.73
2017-09-05T03:30:00.266Z,11.53
2017-09-05T03:32:30.874Z,7.50
2017-09-05T03:35:01.466Z,5.93
2017-09-05T03:37:31.994Z,7.20
2017-09-05T03:40:02.520Z,7.43
2017-09-05T03:42:32.895Z,7.20
2017-09-05T03:45:03.186Z,6.83
2017-09-05T03:47:33.684Z,8.47
2017-09-05T03:50:04.549Z,9.00
2017-09-05T03:52:35.046Z,4.83
2017-09-05T03:55:05.366Z,6.73
2017-09-05T03:57:36.236Z,6.60
2017-09-05T04:00:06.571Z,7.80
2017-09-05T04:02:37.445Z,6.10
2017-09-05T04:05:09.160Z,7.53
2017-09-05T04:07:39.778Z,7.17
2017-09-05T04:10:10.291Z,5.37
2017-09-05T04:12:42.255Z,6.60
2017-09-05T04:15:12.659Z,6.73
2017-09-05T04:17:43.211Z,8.30
2017-09-05T04:20:13.702Z,10.80
2017-09-05T04:22:44.389Z,9.83
2017-09-05T04:25:14.908Z,8.20
2017-09-05T04:27:45.796Z,10.20
2017-09-05T04:30:17.322Z,9.10
2017-09-05T04:32:48.519Z,8.17
2017-09-05T04:35:19.017Z,9.43
2017-09-05T04:37:49.703Z,10.30
2017-09-05T04:40:20.077Z,11.30
2017-09-05T04:42:50.506Z,8.40
2017-09-05T04:45:23.075Z,14.87
2017-09-05T04:47:53.658Z,10.40
2017-09-05T04:50:24.360Z,8.70
2017-09-05T04:52:55.172Z,8.27
2017-09-05T04:55:25.682Z,7.83
2017-09-05T04:57:56.339Z,9.10
2017-09-05T05:00:26.821Z,10.90
2017-09-05T05:02:57.461Z,10.60
2017-09-05T05:05:28.147Z,14.77
2017-09-05T05:07:58.633Z,11.27
2017-09-05T05:10:34.968Z,11.27
2017-09-05T05:13:05.487Z,13.10
2017-09-05T05:15:35.973Z,11.50
2017-09-05T05:18:08.937Z,10.60
2017-09-05T05:20:39.451Z,11.40
2017-09-05T05:23:11.703Z,10.63
2017-09-05T05:25:42.460Z,15.67
2017-09-05T05:28:13.092Z,12.20
2017-09-05T05:30:43.732Z,9.87
2017-09-05T05:33:14.238Z,9.70
2017-09-05T05:35:46.220Z,9.60
2017-09-05T05:38:16.849Z,9.37
2017-09-05T05:40:47.774Z,14.07
2017-09-05T05:43:18.353Z,9.50
2017-09-05T05:45:48.886Z,9.03
2017-09-05T05:48:20.569Z,9.40
2017-09-05T05:50:51.367Z,12.27
2017-09-05T05:53:21.747Z,12.10
2017-09-05T05:55:52.127Z,13.53
2017-09-05T05:58:22.497Z,14.63
2017-09-05T06:00:53.729Z,10.10
2017-09-05T06:03:24.253Z,10.90
2017-09-05T06:05:54.990Z,13.13
2017-09-05T06:08:26.246Z,10.70
2017-09-05T06:10:56.621Z,12.73
2017-09-05T06:13:27.134Z,12.20
2017-09-05T06:15:57.548Z,15.50
2017-09-05T06:18:28.274Z,15.10
2017-09-05T06:20:59.430Z,17.13
2017-09-05T06:23:30.612Z,15.27
2017-09-05T06:26:06.537Z,17.73
2017-09-05T06:28:37.110Z,16.43
2017-09-05T06:31:07.673Z,15.87
2017-09-05T06:33:38.036Z,14.00
2017-09-05T06:36:08.431Z,12.57
2017-09-05T06:38:39.090Z,15.40
2017-09-05T06:41:09.406Z,13.00
2017-09-05T06:43:39.845Z,18.50
2017-09-05T06:46:10.220Z,16.10
2017-09-05T06:48:40.722Z,19.03
2017-09-05T06:51:11.487Z,18.73
2017-09-05T06:53:42.654Z,14.83
2017-09-05T06:56:13.131Z,15.30
2017-09-05T06:58:43.737Z,16.43
2017-09-05T07:01:14.597Z,18.53
2017-09-05T07:03:45.100Z,14.60
2017-09-05T07:06:15.838Z,14.00
2017-09-05T07:08:46.102Z,15.80
2017-09-05T07:11:18.864Z,16.53
2017-09-05T07:13:53.006Z,16.37
2017-09-05T07:16:23.504Z,15.60
2017-09-05T07:18:54.094Z,16.30
2017-09-05T07:21:24.486Z,17.37
2017-09-05T07:23:54.948Z,17.97
2017-09-05T07:26:25.435Z,18.60
2017-09-05T07:28:55.838Z,19.00
2017-09-05T07:31:26.445Z,17.77
2017-09-05T07:33:56.785Z,17.63
2017-09-05T07:36:27.324Z,17.57
2017-09-05T07:38:58.516Z,16.10
2017-09-05T07:41:29.153Z,16.80
2017-09-05T07:43:59.606Z,17.67
2017-09-05T07:46:30.043Z,15.20
2017-09-05T07:49:02.024Z,17.13
2017-09-05T07:51:32.534Z,17.70
2017-09-05T07:54:03.066Z,18.20
2017-09-05T07:56:33.524Z,20.13
2017-09-05T07:59:04.215Z,18.97
2017-09-05T08:01:34.878Z,16.20
2017-09-05T08:04:05.259Z,18.90
2017-09-05T08:06:35.774Z,18.27
2017-09-05T08:09:06.728Z,15.83
2017-09-05T08:11:37.063Z,16.27
2017-09-05T08:14:07.625Z,16.67
2017-09-05T08:16:39.491Z,18.53
2017-09-05T08:19:09.918Z,18.47
2017-09-05T08:21:40.276Z,17.50
2017-09-05T08:24:10.804Z,16.93
2017-09-05T08:26:41.126Z,19.47
2017-09-05T08:29:12.059Z,16.50
2017-09-05T08:31:43.089Z,16.70
2017-09-05T08:34:13.588Z,16.90
2017-09-05T08:36:44.855Z,16.43
2017-09-05T08:39:15.269Z,14.80
2017-09-05T08:41:45.608Z,14.93
2017-09-05T08:44:16.083Z,15.40
2017-09-05T08:46:46.700Z,12.97
2017-09-05T08:49:21.108Z,12.33
2017-09-05T08:51:51.569Z,13.87
2017-09-05T08:54:21.892Z,13.10
2017-09-05T08:56:54.440Z,14.07
2017-09-05T08:59:24.996Z,14.07
2017-09-05T09:01:55.404Z,13.03
2017-09-05T09:04:25.810Z,12.33
2017-09-05T09:06:56.116Z,15.53
2017-09-05T09:09:26.562Z,14.60
2017-09-05T09:11:58.533Z,13.30
2017-09-05T09:14:31.659Z,14.90
2017-09-05T09:17:04.031Z,12.63
2017-09-05T09:19:34.501Z,14.00
2017-09-05T09:25:38.835Z,12.07
2017-09-05T09:28:12.943Z,12.27
2017-09-05T09:30:43.233Z,13.80
2017-09-05T09:33:13.568Z,13.20
2017-09-05T09:35:44.139Z,13.83
2017-09-05T09:38:14.929Z,14.60
2017-09-05T09:40:45.207Z,14.37
2017-09-05T09:43:15.694Z,13.40
2017-09-05T09:45:46.106Z,14.50
2017-09-05T09:48:16.485Z,14.70
2017-09-05T09:50:47.177Z,14.60
2017-09-05T09:53:18.516Z,15.47
2017-09-05T09:55:48.911Z,15.00
2017-09-05T09:58:20.062Z,14.33
2017-09-05T10:00:50.447Z,16.67
2017-09-05T10:03:20.717Z,15.90
2017-09-05T10:05:52.384Z,15.63
2017-09-05T10:08:28.790Z,14.33
2017-09-05T10:10:59.062Z,12.80
2017-09-05T10:13:29.395Z,13.80
2017-09-05T10:16:00.528Z,13.73
2017-09-05T10:18:31.639Z,15.20
2017-09-05T10:21:02.420Z,15.17
2017-09-05T10:23:34.326Z,14.17
2017-09-05T10:26:05.500Z,15.20
2017-09-05T10:28:41.248Z,13.80
2017-09-05T10:31:13.553Z,15.93
2017-09-05T10:33:46.233Z,15.60
2017-09-05T10:36:24.289Z,12.10
2017-09-05T10:38:54.641Z,12.27
2017-09-05T10:41:24.872Z,13.00
2017-09-05T10:43:57.812Z,14.37
2017-09-05T10:46:28.701Z,14.00
2017-09-05T10:49:01.950Z,13.80
2017-09-05T10:51:33.437Z,14.47
2017-09-05T10:54:05.151Z,12.37
2017-09-05T10:56:35.357Z,14.50
2017-09-05T10:59:05.588Z,13.90
2017-09-05T11:01:35.812Z,10.90
2017-09-05T11:04:06.078Z,14.63
2017-09-05T11:06:38.783Z,14.93
2017-09-05T11:09:09.157Z,14.47
2017-09-05T11:11:39.618Z,13.03
2017-09-05T11:14:10.365Z,9.77
2017-09-05T11:16:40.612Z,10.03
2017-09-05T11:19:12.472Z,10.50
2017-09-05T11:21:42.682Z,9.90
2017-09-05T11:24:15.428Z,10.57
2017-09-05T11:26:45.821Z,10.80
2017-09-05T11:29:16.356Z,9.40
2017-09-05T11:31:46.776Z,11.20
2017-09-05T11:34:17.033Z,12.07
2017-09-05T11:36:47.445Z,10.37
2017-09-05T11:39:17.697Z,9.77
2017-09-05T11:41:48.098Z,8.97
2017-09-05T11:44:18.418Z,10.00
2017-09-05T11:46:48.707Z,8.80
2017-09-05T11:49:18.977Z,9.17
2017-09-05T11:51:49.236Z,8.53
2017-09-05T11:54:21.775Z,9.07
2017-09-05T11:56:51.989Z,9.27
2017-09-05T11:59:22.566Z,10.17
2017-09-05T12:01:52.958Z,9.30
2017-09-05T12:04:23.530Z,7.33
2017-09-05T12:06:54.580Z,7.47
2017-09-05T12:09:25.237Z,7.03
2017-09-05T12:11:55.510Z,6.57
2017-09-05T12:14:26.255Z,8.03
2017-09-05T12:16:57.373Z,6.90
2017-09-05T12:19:28.664Z,7.13
2017-09-05T12:21:58.985Z,9.43
2017-09-05T12:24:30.047Z,8.60
2017-09-05T12:27:00.446Z,9.40
2017-09-05T12:29:37.765Z,9.90
2017-09-05T12:32:08.194Z,8.80
2017-09-05T12:34:38.889Z,8.10
2017-09-05T12:37:09.368Z,10.40
2017-09-05T12:39:39.814Z,10.87
2017-09-05T12:42:10.706Z,8.73
2017-09-05T12:44:40.989Z,10.33
2017-09-05T12:47:11.389Z,9.10
2017-09-05T12:49:41.747Z,9.23
2017-09-05T12:52:12.028Z,8.27
2017-09-05T12:54:47.525Z,8.90
2017-09-05T12:57:17.772Z,10.30
2017-09-05T12:59:48.223Z,9.10
2017-09-05T13:02:18.586Z,9.77
2017-09-05T13:04:49.695Z,7.33
2017-09-05T13:07:19.960Z,9.60
2017-09-05T13:10:04.406Z,9.57
2017-09-05T13:12:34.706Z,9.97
2017-09-05T13:15:05.539Z,8.90
2017-09-05T13:17:36.002Z,8.93
2017-09-05T13:20:06.398Z,9.80
2017-09-05T13:22:36.778Z,10.60
2017-09-05T13:25:07.070Z,8.73
2017-09-05T13:27:55.897Z,8.20
2017-09-05T13:30:26.352Z,10.43
2017-09-05T13:32:57.307Z,10.33
2017-09-05T13:35:27.566Z,8.27
2017-09-05T13:37:57.913Z,10.17
2017-09-05T13:40:28.291Z,8.40
2017-09-05T13:42:58.892Z,9.37
2017-09-05T13:45:30.028Z,8.73
2017-09-05T13:48:01.573Z,8.20
2017-09-05T13:50:31.956Z,9.40
2017-09-05T13:53:02.190Z,9.57
2017-09-05T13:55:34.719Z,9.70
2017-09-05T13:58:05.251Z,9.50
2017-09-05T14:00:36.850Z,11.70
2017-09-05T14:03:07.286Z,5.77
2017-09-05T14:05:37.621Z,9.20
2017-09-05T14:08:07.855Z,8.93
2017-09-05T14:10:38.163Z,10.40
2017-09-05T14:13:13.873Z,8.80
2017-09-05T14:15:46.353Z,9.10
2017-09-05T14:18:16.870Z,11.20
2017-09-05T14:20:47.070Z,10.87
2017-09-05T14:23:17.435Z,8.17
2017-09-05T14:25:48.001Z,10.07
2017-09-05T14:28:18.286Z,11.67
2017-09-05T14:30:49.771Z,7.87
2017-09-05T14:33:20.451Z,10.27
2017-09-05T14:35:53.514Z,9.00
2017-09-05T14:38:23.919Z,7.97
2017-09-05T14:40:54.842Z,8.50
2017-09-05T14:43:25.888Z,7.17
2017-09-05T14:45:56.379Z,8.77
2017-09-05T14:48:27.890Z,7.97
2017-09-05T14:50:59.756Z,8.60
2017-09-05T14:53:30.767Z,7.77
2017-09-05T14:56:01.302Z,8.70
2017-09-05T14:58:31.845Z,7.20
2017-09-05T15:01:02.214Z,8.47
2017-09-05T15:03:34.258Z,7.67
2017-09-05T15:06:05.186Z,7.43
2017-09-05T15:08:35.541Z,7.37
2017-09-05T15:11:05.885Z,6.97
2017-09-05T15:13:36.914Z,6.47
2017-09-05T15:16:08.337Z,5.20
2017-09-05T15:18:40.579Z,7.10
2017-09-05T15:21:10.946Z,7.87
2017-09-05T15:23:41.208Z,7.27
2017-09-05T15:26:11.596Z,7.17
2017-09-05T15:28:42.365Z,8.60
2017-09-05T15:31:12.710Z,6.23
2017-09-05T15:33:43.655Z,7.43
2017-09-05T15:36:14.874Z,7.00
2017-09-05T15:38:45.582Z,7.80
2017-09-05T15:41:15.930Z,7.70
2017-09-05T15:43:46.487Z,7.90
2017-09-05T15:46:20.694Z,8.60
2017-09-05T15:48:50.943Z,7.50
2017-09-05T15:51:21.205Z,6.93
2017-09-05T15:53:51.504Z,7.10
2017-09-05T15:56:21.783Z,5.50
2017-09-05T15:58:51.984Z,6.50
2017-09-05T16:01:22.529Z,6.60
2017-09-05T16:03:52.863Z,7.87
2017-09-05T16:06:23.305Z,7.20
2017-09-05T16:08:55.873Z,7.10
2017-09-05T16:11:26.224Z,6.87
2017-09-05T16:13:56.422Z,5.90
2017-09-05T16:16:26.710Z,6.77
2017-09-05T16:18:57.103Z,6.80
2017-09-05T16:21:27.969Z,7.00
2017-09-05T16:23:58.395Z,6.97
2017-09-05T16:26:28.698Z,7.37
2017-09-05T16:28:58.905Z,6.67
2017-09-05T16:31:29.236Z,6.00
2017-09-05T16:33:59.598Z,6.50
2017-09-05T16:36:29.832Z,6.13
2017-09-05T16:39:00.191Z,6.63
2017-09-05T16:41:31.282Z,5.87
2017-09-05T16:44:01.695Z,5.97
2017-09-05T16:46:31.926Z,6.40
2017-09-05T16:49:02.257Z,4.90
2017-09-05T16:51:39.501Z,5.20
2017-09-05T16:54:13.796Z,7.17
2017-09-05T16:56:48.438Z,6.30
2017-09-05T16:59:18.866Z,5.90
2017-09-05T17:01:49.952Z,5.80
2017-09-05T17:04:20.479Z,4.30
2017-09-05T17:06:50.946Z,6.43
2017-09-05T17:09:21.339Z,6.50
2017-09-05T17:11:51.810Z,4.60
2017-09-05T17:14:22.173Z,7.27
2017-09-05T17:16:52.595Z,6.80
2017-09-05T17:19:22.909Z,6.17
2017-09-05T17:21:54.113Z,7.33
2017-09-05T17:24:24.544Z,6.63
2017-09-05T17:26:55.906Z,7.03
2017-09-05T17:29:26.978Z,6.97
2017-09-05T17:31:57.262Z,6.73
2017-09-05T17:34:28.369Z,5.63
2017-09-05T17:36:59.074Z,6.70
2017-09-05T17:39:29.635Z,6.70
2017-09-05T17:42:03.154Z,6.30
2017-09-05T17:44:33.711Z,5.13
2017-09-05T17:47:05.057Z,6.30
2017-09-05T17:49:36.678Z,7.20
2017-09-05T17:52:08.886Z,7.77
2017-09-05T17:54:40.267Z,6.80
2017-09-05T17:57:10.900Z,7.63
2017-09-05T17:59:41.737Z,5.60
2017-09-05T18:02:12.757Z,7.03
2017-09-05T18:04:43.240Z,7.40
2017-09-05T18:07:13.924Z,5.20
2017-09-05T18:09:46.140Z,7.00
2017-09-05T18:12:16.710Z,6.27
2017-09-05T18:14:47.759Z,7.40
2017-09-05T18:17:18.171Z,6.20
2017-09-05T18:19:50.326Z,6.57
2017-09-05T18:22:20.923Z,6.90
2017-09-05T18:24:52.529Z,7.20
2017-09-05T18:27:23.941Z,7.47
2017-09-05T18:29:57.907Z,7.40
2017-09-05T18:32:34.744Z,8.07
2017-09-05T18:35:05.209Z,7.03
2017-09-05T18:37:35.894Z,6.00
2017-09-05T18:40:06.595Z,7.00
2017-09-05T18:42:37.109Z,8.40
2017-09-05T18:45:07.539Z,7.00
2017-09-05T18:47:38.283Z,6.90
2017-09-05T18:50:08.558Z,6.00
2017-09-05T18:52:39.018Z,6.50
2017-09-05T18:55:10.504Z,7.63
2017-09-05T18:57:40.902Z,6.87
2017-09-05T19:00:11.822Z,6.10
2017-09-05T19:02:42.263Z,7.03
2017-09-05T19:05:12.659Z,6.70
2017-09-05T19:07:43.378Z,6.57
2017-09-05T19:10:13.576Z,6.63
2017-09-05T19:12:44.094Z,6.63
2017-09-05T19:15:15.276Z,6.17
2017-09-05T19:17:45.647Z,6.27
2017-09-05T19:20:16.162Z,5.53
2017-09-05T19:22:46.486Z,5.30
2017-09-05T19:25:16.786Z,5.10
2017-09-05T19:27:47.192Z,4.93
2017-09-05T19:30:17.647Z,5.53
2017-09-05T19:32:47.931Z,5.30
2017-09-05T19:35:18.252Z,4.83
2017-09-05T19:37:48.516Z,6.20
2017-09-05T19:40:18.797Z,5.90
2017-09-05T19:42:48.983Z,5.73
2017-09-05T19:45:19.264Z,5.97
2017-09-05T19:47:49.631Z,5.50
2017-09-05T19:50:20.086Z,4.80
2017-09-05T19:52:50.495Z,5.60
2017-09-05T19:55:20.771Z,5.50
2017-09-05T19:57:51.167Z,5.53
2017-09-05T20:00:21.440Z,3.90
2017-09-05T20:02:51.697Z,3.67
2017-09-05T20:05:21.961Z,3.03
2017-09-05T20:07:52.424Z,4.47
2017-09-05T20:10:22.778Z,4.43
2017-09-05T20:12:53.137Z,4.97
2017-09-05T20:15:23.371Z,4.70
2017-09-05T20:17:53.574Z,4.30
2017-09-05T20:20:24.073Z,3.37
2017-09-05T20:22:54.337Z,4.80
2017-09-05T20:25:24.697Z,4.30
2017-09-05T20:27:54.918Z,4.90
2017-09-05T20:30:25.254Z,5.37
2017-09-05T20:32:55.535Z,5.10
2017-09-05T20:35:27.126Z,4.77
2017-09-05T20:37:57.616Z,6.60
2017-09-05T20:40:27.862Z,5.53
2017-09-05T20:42:58.188Z,5.63
2017-09-05T20:45:28.479Z,4.40
2017-09-05T20:47:59.006Z,4.60
2017-09-05T20:50:29.578Z,4.57
2017-09-05T20:53:00.160Z,4.80
2017-09-05T20:55:30.390Z,4.40
2017-09-05T20:58:01.387Z,3.50
2017-09-05T21:00:32.034Z,3.83
2017-09-05T21:03:02.431Z,4.23
2017-09-05T21:05:32.689Z,4.33
2017-09-05T21:08:03.009Z,3.63
2017-09-05T21:10:33.381Z,3.60
2017-09-05T21:13:03.617Z,4.07
2017-09-05T21:15:34.238Z,3.47
2017-09-05T21:18:04.572Z,3.70
2017-09-05T21:20:34.887Z,5.07
2017-09-05T21:23:05.158Z,3.47
2017-09-05T21:25:35.775Z,3.57
2017-09-05T21:28:06.101Z,4.70
2017-09-05T21:30:41.277Z,5.00
2017-09-05T21:33:11.645Z,4.03
2017-09-05T21:35:42.018Z,3.87
2017-09-05T21:38:12.426Z,3.50
2017-09-05T21:40:43.066Z,5.43
2017-09-05T21:43:13.470Z,4.17
2017-09-05T21:45:43.793Z,6.00
2017-09-05T21:48:14.200Z,6.97
2017-09-05T21:50:45.048Z,8.47
2017-09-05T21:53:15.335Z,7.50
2017-09-05T21:55:45.607Z,5.20
2017-09-05T21:58:15.763Z,7.17
2017-09-05T22:00:45.882Z,6.67
2017-09-05T22:03:16.226Z,8.80
2017-09-05T22:05:46.573Z,7.60
2017-09-05T22:08:16.754Z,8.47
2017-09-05T22:10:47.214Z,8.23
2017-09-05T22:13:18.804Z,8.17
2017-09-05T22:15:48.954Z,8.60
2017-09-05T22:18:23.271Z,8.33
2017-09-05T22:21:57.538Z,7.17
2017-09-05T22:24:32.182Z,8.70
2017-09-05T22:29:08.642Z,8.40
2017-09-05T22:31:39.736Z,8.27
2017-09-05T22:34:10.065Z,9.30
2017-09-05T22:36:40.263Z,8.40
2017-09-05T22:39:10.475Z,8.90
2017-09-05T22:41:42.209Z,10.30
2017-09-05T22:44:12.376Z,8.57
2017-09-05T22:46:43.358Z,9.93
2017-09-05T22:49:13.547Z,8.57
2017-09-05T22:51:43.841Z,9.17
2017-09-05T22:54:22.421Z,10.13
2017-09-05T22:56:52.575Z,11.17
2017-09-05T22:59:24.242Z,13.80
2017-09-05T23:01:54.771Z,13.70
2017-09-05T23:04:25.121Z,13.90
2017-09-05T23:06:56.122Z,13.80
2017-09-05T23:09:26.454Z,11.87
2017-09-05T23:11:57.142Z,13.80
2017-09-05T23:14:27.870Z,11.80
2017-09-05T23:16:59.119Z,10.60
2017-09-05T23:19:29.551Z,10.47
2017-09-05T23:21:59.839Z,10.17
2017-09-05T23:24:33.666Z,8.50
2017-09-05T23:27:04.519Z,6.90
2017-09-05T23:29:34.725Z,6.63
2017-09-05T23:32:05.350Z,5.63
2017-09-05T23:34:35.668Z,6.40
2017-09-05T23:37:05.838Z,6.20
2017-09-05T23:39:37.077Z,7.23
2017-09-05T23:42:08.033Z,6.30
2017-09-05T23:44:39.144Z,7.30
2017-09-05T23:47:11.694Z,7.20
2017-09-05T23:49:41.910Z,6.83
2017-09-05T23:52:12.311Z,6.70
2017-09-05T23:54:43.050Z,6.00
2017-09-05T23:57:13.305Z,8.00
2017-09-05T23:59:43.586Z,9.23
